createdAt,value
2022-09-06T00:02:21.712Z,31.00
2022-09-06T00:05:27.149Z,31.60
2022-09-06T00:08:32.128Z,27.40
2022-09-06T00:11:38.480Z,37.23
2022-09-06T00:14:44.804Z,25.23
2022-09-06T00:17:52.411Z,26.33
2022-09-06T00:20:58.998Z,29.77
2022-09-06T00:24:04.359Z,28.87
2022-09-06T00:27:10.033Z,26.90
2022-09-06T00:30:15.455Z,26.40
2022-09-06T00:33:22.225Z,27.65
2022-09-06T00:36:28.320Z,25.52
2022-09-06T00:39:34.439Z,29.40
2022-09-06T00:42:40.322Z,28.00
2022-09-06T00:45:47.950Z,22.70
2022-09-06T00:48:52.957Z,20.55
2022-09-06T00:51:58.942Z,19.82
2022-09-06T00:55:04.895Z,25.30
2022-09-06T00:58:10.495Z,25.00
2022-09-06T01:01:17.023Z,26.00
2022-09-06T01:04:22.194Z,24.10
2022-09-06T01:07:54.476Z,20.77
2022-09-06T01:11:27.088Z,26.82
2022-09-06T01:15:12.641Z,23.00
2022-09-06T01:18:37.046Z,30.55
2022-09-06T01:21:53.760Z,31.70
2022-09-06T01:25:19.684Z,23.00
2022-09-06T01:28:50.162Z,28.83
2022-09-06T01:35:15.238Z,21.42
2022-09-06T01:38:21.083Z,20.10
2022-09-06T01:41:26.271Z,22.10
2022-09-06T01:44:32.183Z,27.45
2022-09-06T01:48:09.541Z,24.63
2022-09-06T01:51:19.497Z,24.12
2022-09-06T01:54:52.047Z,26.35
2022-09-06T01:58:39.843Z,22.95
2022-09-06T02:02:00.266Z,22.00
2022-09-06T02:05:18.943Z,24.75
2022-09-06T02:08:16.128Z,21.15
2022-09-06T02:11:22.709Z,19.92
2022-09-06T02:14:39.674Z,20.05
2022-09-06T02:17:52.596Z,16.45
2022-09-06T02:21:01.691Z,14.38
2022-09-06T02:24:07.103Z,18.52
2022-09-06T02:27:11.808Z,15.80
2022-09-06T02:30:16.706Z,24.72
2022-09-06T02:33:28.450Z,23.67
2022-09-06T02:36:34.596Z,25.57
2022-09-06T02:39:39.768Z,20.20
2022-09-06T02:42:46.343Z,32.03
2022-09-06T02:45:51.511Z,25.08
2022-09-06T02:48:57.315Z,27.67
2022-09-06T02:52:02.819Z,32.38
2022-09-06T02:55:09.591Z,34.85
2022-09-06T02:58:14.852Z,40.10
2022-09-06T03:01:20.819Z,35.85
2022-09-06T03:04:27.941Z,26.42
2022-09-06T03:07:33.442Z,25.80
2022-09-06T03:10:38.300Z,26.48
2022-09-06T03:13:44.097Z,26.48
2022-09-06T03:16:50.108Z,25.68
2022-09-06T03:19:56.220Z,29.15
2022-09-06T03:23:03.432Z,25.15
2022-09-06T03:26:09.578Z,31.80
2022-09-06T03:29:08.493Z,38.17
2022-09-06T03:32:01.716Z,32.73
2022-09-06T03:35:06.975Z,31.02
2022-09-06T03:38:14.861Z,29.10
2022-09-06T03:41:20.068Z,32.48
2022-09-06T03:44:26.585Z,24.12
2022-09-06T03:47:33.267Z,26.65
2022-09-06T03:50:39.736Z,25.17
2022-09-06T03:53:45.731Z,22.45
2022-09-06T03:56:51.882Z,19.45
2022-09-06T03:59:57.188Z,25.12
2022-09-06T04:03:06.775Z,32.25
2022-09-06T04:06:12.612Z,53.58
2022-09-06T04:09:18.555Z,30.17
2022-09-06T04:12:25.544Z,24.32
2022-09-06T04:15:31.391Z,23.30
2022-09-06T04:18:37.870Z,21.23
2022-09-06T04:21:43.402Z,19.20
2022-09-06T04:24:48.658Z,15.90
2022-09-06T04:27:56.540Z,18.57
2022-09-06T04:31:13.424Z,20.77
2022-09-06T04:34:19.058Z,16.42
2022-09-06T04:37:26.925Z,17.67
2022-09-06T04:40:32.671Z,19.17
2022-09-06T04:43:38.215Z,14.28
2022-09-06T04:46:47.473Z,20.17
2022-09-06T04:49:52.954Z,18.55
2022-09-06T04:52:59.347Z,20.52
2022-09-06T04:56:05.019Z,23.30
2022-09-06T04:59:09.834Z,17.80
2022-09-06T05:02:15.137Z,23.18
2022-09-06T05:05:19.737Z,24.02
2022-09-06T05:08:25.394Z,26.23
2022-09-06T05:11:32.064Z,23.52
2022-09-06T05:14:37.882Z,28.98
2022-09-06T05:17:44.290Z,25.30
2022-09-06T05:20:49.541Z,22.07
2022-09-06T05:23:58.493Z,17.82
2022-09-06T05:27:03.166Z,22.77
2022-09-06T05:30:08.590Z,22.25
2022-09-06T05:33:14.995Z,19.77
2022-09-06T05:36:21.723Z,18.15
2022-09-06T05:39:28.331Z,20.77
2022-09-06T05:42:36.756Z,18.98
2022-09-06T05:45:43.205Z,17.75
2022-09-06T05:48:49.292Z,23.15
2022-09-06T05:51:56.131Z,18.37
2022-09-06T05:55:02.415Z,20.60
2022-09-06T05:58:08.590Z,16.40
2022-09-06T06:01:37.314Z,13.20
2022-09-06T06:04:45.561Z,17.32
2022-09-06T06:07:54.131Z,13.10
2022-09-06T06:11:01.239Z,14.20
2022-09-06T06:14:07.503Z,6.62
2022-09-06T06:17:07.792Z,7.40
2022-09-06T06:20:13.953Z,7.80
2022-09-06T06:23:19.147Z,6.72
2022-09-06T06:26:28.051Z,4.47
2022-09-06T06:32:41.158Z,5.12
2022-09-06T06:35:47.143Z,9.93
2022-09-06T06:38:53.827Z,8.18
2022-09-06T06:41:58.606Z,3.70
2022-09-06T06:45:05.632Z,7.12
2022-09-06T06:48:04.727Z,6.28
2022-09-06T06:51:10.264Z,5.53
2022-09-06T06:54:08.954Z,4.47
2022-09-06T06:57:16.770Z,3.98
2022-09-06T07:00:28.367Z,4.92
2022-09-06T07:03:36.084Z,5.25
2022-09-06T07:12:59.920Z,2.98
2022-09-06T07:16:06.723Z,4.15
2022-09-06T07:22:23.704Z,3.98
2022-09-06T07:25:29.167Z,2.50
2022-09-06T07:28:34.521Z,2.50
2022-09-06T07:34:49.117Z,2.92
2022-09-06T07:37:55.215Z,2.20
2022-09-06T07:41:14.763Z,1.45
2022-09-06T07:44:20.264Z,4.15
2022-09-06T07:50:50.189Z,1.95
2022-09-06T07:53:43.881Z,2.37
2022-09-06T07:56:49.519Z,1.40
2022-09-06T07:59:55.787Z,1.20
2022-09-06T08:03:02.609Z,9.10
2022-09-06T08:06:08.814Z,3.47
2022-09-06T08:09:15.551Z,1.85
2022-09-06T08:12:46.591Z,6.15
2022-09-06T08:15:41.751Z,1.07
2022-09-06T08:18:50.831Z,1.52
2022-09-06T08:21:55.587Z,1.35
2022-09-06T08:25:01.888Z,3.00
2022-09-06T08:28:11.031Z,4.35
2022-09-06T08:31:25.162Z,1.45
2022-09-06T08:34:32.033Z,1.90
2022-09-06T08:37:37.738Z,1.47
2022-09-06T08:40:43.381Z,1.52
2022-09-06T08:43:49.764Z,2.62
2022-09-06T08:47:11.257Z,1.87
2022-09-06T08:50:20.704Z,1.62
2022-09-06T08:53:31.930Z,4.25
2022-09-06T08:56:48.944Z,2.20
2022-09-06T08:59:56.192Z,2.40
2022-09-06T09:03:06.354Z,0.78
2022-09-06T09:06:12.226Z,1.85
2022-09-06T09:09:21.600Z,5.42
2022-09-06T09:12:27.175Z,1.95
2022-09-06T09:15:40.054Z,2.77
2022-09-06T09:18:46.425Z,2.90
2022-09-06T09:21:54.219Z,7.67
2022-09-06T09:24:54.794Z,4.62
2022-09-06T09:28:03.294Z,11.53
2022-09-06T09:31:10.278Z,3.05
2022-09-06T09:34:15.767Z,4.28
2022-09-06T09:37:46.369Z,2.62
2022-09-06T09:40:50.836Z,4.20
2022-09-06T09:43:57.241Z,1.60
2022-09-06T09:47:03.468Z,1.90
2022-09-06T09:50:11.172Z,2.65
2022-09-06T09:53:27.830Z,2.80
2022-09-06T09:56:32.831Z,2.65
2022-09-06T09:59:56.697Z,2.83
2022-09-06T10:03:01.590Z,2.15
2022-09-06T10:09:39.505Z,4.90
2022-09-06T10:12:56.470Z,5.62
2022-09-06T10:16:03.716Z,1.27
2022-09-06T10:19:09.909Z,1.17
2022-09-06T10:22:19.635Z,1.30
2022-09-06T10:25:30.810Z,4.40
2022-09-06T10:28:55.744Z,7.72
2022-09-06T10:32:31.047Z,2.65
2022-09-06T10:35:40.128Z,1.65
2022-09-06T10:38:42.089Z,0.75
2022-09-06T10:42:22.333Z,3.12
2022-09-06T10:45:53.784Z,2.77
2022-09-06T10:49:02.788Z,3.47
2022-09-06T10:52:13.979Z,1.50
2022-09-06T10:55:20.251Z,3.33
2022-09-06T10:58:25.899Z,0.78
2022-09-06T11:01:34.719Z,1.95
2022-09-06T11:11:07.245Z,1.80
2022-09-06T11:14:13.237Z,7.10
2022-09-06T11:17:23.552Z,2.35
2022-09-06T11:24:17.472Z,4.78
2022-09-06T11:27:41.700Z,4.00
2022-09-06T11:30:34.576Z,3.58
2022-09-06T11:33:47.664Z,1.47
2022-09-06T11:36:59.891Z,5.92
2022-09-06T11:40:27.698Z,3.87
2022-09-06T11:43:52.942Z,2.65
2022-09-06T11:47:04.167Z,1.87
2022-09-06T11:50:09.764Z,3.52
2022-09-06T11:53:29.671Z,3.77
2022-09-06T11:57:01.631Z,2.37
2022-09-06T12:00:14.333Z,2.47
2022-09-06T12:06:30.540Z,3.02
2022-09-06T12:09:52.435Z,3.37
2022-09-06T12:13:04.950Z,2.17
2022-09-06T12:16:13.061Z,1.37
2022-09-06T12:19:18.862Z,13.48
2022-09-06T12:22:47.197Z,3.98
2022-09-06T12:25:56.562Z,3.77
2022-09-06T12:29:05.157Z,2.98
2022-09-06T12:32:12.501Z,5.17
2022-09-06T12:38:39.479Z,6.47
2022-09-06T12:41:48.533Z,3.42
2022-09-06T12:44:57.411Z,2.22
2022-09-06T12:48:02.636Z,8.45
2022-09-06T12:51:24.980Z,6.87
2022-09-06T12:54:39.243Z,1.80
2022-09-06T12:57:44.663Z,1.05
2022-09-06T13:00:58.206Z,1.15
2022-09-06T13:04:16.135Z,4.45
2022-09-06T13:07:24.305Z,2.30
2022-09-06T13:10:30.846Z,1.87
2022-09-06T13:13:38.508Z,2.08
2022-09-06T13:16:49.839Z,1.30
2022-09-06T13:19:55.919Z,2.80
2022-09-06T13:23:03.913Z,5.92
2022-09-06T13:26:09.509Z,1.35
2022-09-06T13:29:33.501Z,8.08
2022-09-06T13:32:38.847Z,1.20
2022-09-06T13:35:52.667Z,2.33
2022-09-06T13:38:58.727Z,1.45
2022-09-06T13:42:09.066Z,1.90
2022-09-06T13:45:38.285Z,2.33
2022-09-06T13:48:46.546Z,8.13
2022-09-06T13:51:53.505Z,2.00
2022-09-06T13:54:59.360Z,3.35
2022-09-06T13:58:04.477Z,2.58
2022-09-06T14:01:10.255Z,2.83
2022-09-06T14:04:17.919Z,1.92
2022-09-06T14:07:24.081Z,2.00
2022-09-06T14:10:30.434Z,2.02
2022-09-06T14:13:35.442Z,0.65
2022-09-06T14:16:41.179Z,1.45
2022-09-06T14:19:46.946Z,4.12
2022-09-06T14:22:52.484Z,1.72
2022-09-06T14:25:57.562Z,1.82
2022-09-06T14:29:04.043Z,2.27
2022-09-06T14:32:10.177Z,1.95
2022-09-06T14:35:16.228Z,3.17
2022-09-06T14:38:22.277Z,2.77
2022-09-06T14:41:27.838Z,8.25
2022-09-06T14:44:33.491Z,1.77
2022-09-06T14:47:40.434Z,2.10
2022-09-06T14:50:45.625Z,2.95
2022-09-06T14:53:52.195Z,5.80
2022-09-06T14:56:58.554Z,5.92
2022-09-06T15:00:05.728Z,4.47
2022-09-06T15:03:11.093Z,1.30
2022-09-06T15:06:18.524Z,3.37
2022-09-06T15:09:24.278Z,3.65
2022-09-06T15:12:29.659Z,2.47
2022-09-06T15:15:35.323Z,1.47
2022-09-06T15:18:41.615Z,3.75
2022-09-06T15:21:47.238Z,4.65
2022-09-06T15:24:53.179Z,1.77
2022-09-06T15:27:58.816Z,1.90
2022-09-06T15:31:04.832Z,2.50
2022-09-06T15:34:11.007Z,5.22
2022-09-06T15:37:20.651Z,1.17
2022-09-06T15:40:29.276Z,1.22
2022-09-06T15:43:36.296Z,2.35
2022-09-06T15:46:55.151Z,3.22
2022-09-06T15:50:04.202Z,1.00
2022-09-06T15:53:03.319Z,2.10
2022-09-06T15:56:14.107Z,1.02
2022-09-06T15:59:19.463Z,1.70
2022-09-06T16:02:25.197Z,1.30
2022-09-06T16:08:38.339Z,4.10
2022-09-06T16:11:44.511Z,4.53
2022-09-06T16:14:49.138Z,2.30
2022-09-06T16:17:55.326Z,2.50
2022-09-06T16:21:00.988Z,5.05
2022-09-06T16:24:17.540Z,2.47
2022-09-06T16:27:23.355Z,4.03
2022-09-06T16:30:28.809Z,7.90
2022-09-06T16:33:33.869Z,4.60
2022-09-06T16:36:40.544Z,4.87
2022-09-06T16:39:45.891Z,3.98
2022-09-06T16:42:52.384Z,2.77
2022-09-06T16:45:58.006Z,3.77
2022-09-06T16:49:12.575Z,2.40
2022-09-06T16:52:18.996Z,2.33
2022-09-06T16:55:24.064Z,2.85
2022-09-06T16:58:30.013Z,2.50
2022-09-06T17:01:36.809Z,8.80
2022-09-06T17:04:42.529Z,1.32
2022-09-06T17:07:47.623Z,1.60
2022-09-06T17:10:54.013Z,1.47
2022-09-06T17:14:02.523Z,4.40
2022-09-06T17:17:13.190Z,4.03
2022-09-06T17:20:12.635Z,3.33
2022-09-06T17:23:19.754Z,4.55
2022-09-06T17:26:24.342Z,5.67
2022-09-06T17:29:31.905Z,3.22
2022-09-06T17:32:38.681Z,1.60
2022-09-06T17:35:44.598Z,1.90
2022-09-06T17:38:53.293Z,4.97
2022-09-06T17:42:02.817Z,1.67
2022-09-06T17:45:09.078Z,2.62
2022-09-06T17:48:15.779Z,3.35
2022-09-06T17:51:22.827Z,1.42
2022-09-06T17:54:27.826Z,3.87
2022-09-06T17:57:32.893Z,2.40
2022-09-06T18:00:38.500Z,4.75
2022-09-06T18:03:44.892Z,1.60
2022-09-06T18:06:50.664Z,2.15
2022-09-06T18:09:57.522Z,1.87
2022-09-06T18:13:03.617Z,2.77
2022-09-06T18:16:10.471Z,1.82
2022-09-06T18:19:17.182Z,1.85
2022-09-06T18:22:23.093Z,2.60
2022-09-06T18:25:29.346Z,2.60
2022-09-06T18:28:34.559Z,3.55
2022-09-06T18:31:40.908Z,7.67
2022-09-06T18:34:47.530Z,6.12
2022-09-06T18:37:54.327Z,3.55
2022-09-06T18:41:15.157Z,3.15
2022-09-06T18:44:20.912Z,9.95
2022-09-06T18:47:26.510Z,4.83
2022-09-06T18:50:32.350Z,3.02
2022-09-06T18:53:42.653Z,5.60
2022-09-06T18:56:44.713Z,2.80
2022-09-06T18:59:49.895Z,4.58
2022-09-06T19:02:56.860Z,2.62
2022-09-06T19:06:04.965Z,2.47
2022-09-06T19:09:18.303Z,4.67
2022-09-06T19:12:24.343Z,2.67
2022-09-06T19:15:31.382Z,7.97
2022-09-06T19:18:39.099Z,2.90
2022-09-06T19:21:46.128Z,2.30
2022-09-06T19:24:51.730Z,5.08
2022-09-06T19:27:57.541Z,3.20
2022-09-06T19:31:05.734Z,3.65
2022-09-06T19:34:11.529Z,3.40
2022-09-06T19:37:18.506Z,4.03
2022-09-06T19:40:24.988Z,5.87
2022-09-06T19:43:30.728Z,7.20
2022-09-06T19:46:35.917Z,3.75
2022-09-06T19:49:42.353Z,6.35
2022-09-06T19:52:48.071Z,3.22
2022-09-06T19:55:54.447Z,2.83
2022-09-06T19:59:00.415Z,4.55
2022-09-06T20:02:05.780Z,4.30
2022-09-06T20:05:11.113Z,4.40
2022-09-06T20:08:16.152Z,5.85
2022-09-06T20:11:23.915Z,4.80
2022-09-06T20:14:31.377Z,4.85
2022-09-06T20:17:36.838Z,4.87
2022-09-06T20:20:41.939Z,4.78
2022-09-06T20:23:48.118Z,3.70
2022-09-06T20:26:53.031Z,4.80
2022-09-06T20:29:59.032Z,8.65
2022-09-06T20:33:04.642Z,8.25
2022-09-06T20:36:14.474Z,5.95
2022-09-06T20:39:20.094Z,3.05
2022-09-06T20:42:26.207Z,3.67
2022-09-06T20:45:26.124Z,4.15
2022-09-06T20:48:31.448Z,3.97
2022-09-06T20:51:37.526Z,3.67
2022-09-06T20:54:42.195Z,6.55
2022-09-06T20:57:47.729Z,5.62
2022-09-06T21:00:54.640Z,2.90
2022-09-06T21:04:01.269Z,3.45
2022-09-06T21:07:06.780Z,9.23
2022-09-06T21:10:12.890Z,8.20
2022-09-06T21:13:19.222Z,4.22
2022-09-06T21:16:25.719Z,9.48
2022-09-06T21:19:32.071Z,3.65
2022-09-06T21:22:37.678Z,3.80
2022-09-06T21:25:43.788Z,4.62
2022-09-06T21:28:46.282Z,3.25
2022-09-06T21:31:42.685Z,5.47
2022-09-06T21:34:48.687Z,4.30
2022-09-06T21:37:54.252Z,2.40
2022-09-06T21:40:53.466Z,6.70
2022-09-06T21:44:01.361Z,3.20
2022-09-06T21:47:06.331Z,3.55
2022-09-06T21:50:11.455Z,2.85
2022-09-06T21:53:18.613Z,5.85
2022-09-06T21:56:25.759Z,7.33
2022-09-06T21:59:32.378Z,6.65
2022-09-06T22:02:37.818Z,2.90
2022-09-06T22:05:36.534Z,4.55
2022-09-06T22:08:42.120Z,4.17
2022-09-06T22:11:48.026Z,9.10
2022-09-06T22:14:54.402Z,5.65
2022-09-06T22:18:00.317Z,7.00
2022-09-06T22:21:05.725Z,12.58
2022-09-06T22:24:17.663Z,5.35
2022-09-06T22:27:23.422Z,7.37
2022-09-06T22:30:28.458Z,4.92
2022-09-06T22:33:34.451Z,11.78
2022-09-06T22:36:39.372Z,7.62
2022-09-06T22:39:43.607Z,9.28
2022-09-06T22:42:49.782Z,5.83
2022-09-06T22:45:55.445Z,8.25
2022-09-06T22:49:02.780Z,7.80
2022-09-06T22:52:08.288Z,13.88
2022-09-06T22:55:13.652Z,13.30
2022-09-06T22:58:19.233Z,11.43
2022-09-06T23:01:29.676Z,9.50
2022-09-06T23:04:36.479Z,11.48
2022-09-06T23:07:41.687Z,12.68
2022-09-06T23:10:47.114Z,12.80
2022-09-06T23:13:53.680Z,12.75
2022-09-06T23:17:00.040Z,11.97
2022-09-06T23:19:58.008Z,13.32
2022-09-06T23:23:07.508Z,10.68
2022-09-06T23:26:20.020Z,12.03
2022-09-06T23:29:25.272Z,9.83
2022-09-06T23:32:32.755Z,9.58
2022-09-06T23:35:38.995Z,14.20
2022-09-06T23:38:45.354Z,11.93
2022-09-06T23:41:50.867Z,15.63
2022-09-06T23:44:59.115Z,20.35
2022-09-06T23:48:04.708Z,15.60
2022-09-06T23:51:10.357Z,14.28
2022-09-06T23:54:15.733Z,20.55
2022-09-06T23:57:21.459Z,19.37
